createdAt,value
2022-10-29T00:01:06.864Z,0.70
2022-10-29T00:03:34.623Z,0.80
2022-10-29T00:06:05.295Z,0.70
2022-10-29T00:08:37.116Z,0.70
2022-10-29T00:11:10.658Z,1.05
2022-10-29T00:13:39.181Z,0.70
2022-10-29T00:16:09.214Z,0.70
2022-10-29T00:18:37.193Z,0.70
2022-10-29T00:21:08.027Z,0.70
2022-10-29T00:26:05.416Z,0.80
2022-10-29T00:28:33.990Z,0.60
2022-10-29T00:31:05.363Z,0.68
2022-10-29T00:33:33.574Z,0.80
2022-10-29T00:36:04.408Z,0.65
2022-10-29T00:41:02.926Z,0.60
2022-10-29T00:43:31.190Z,0.60
2022-10-29T00:46:03.962Z,1.00
2022-10-29T00:48:37.920Z,0.63
2022-10-29T00:51:10.125Z,0.50
2022-10-29T00:53:43.947Z,0.52
2022-10-29T00:56:15.315Z,0.75
2022-10-29T00:58:43.922Z,0.60
2022-10-29T01:01:12.293Z,0.73
2022-10-29T01:03:40.571Z,0.88
2022-10-29T01:06:09.613Z,0.80
2022-10-29T01:08:37.637Z,0.60
2022-10-29T01:11:24.331Z,0.70
2022-10-29T01:14:12.959Z,0.80
2022-10-29T01:16:50.174Z,0.68
2022-10-29T01:19:47.246Z,0.75
2022-10-29T01:22:22.489Z,0.55
2022-10-29T01:25:14.307Z,0.93
2022-10-29T01:28:22.281Z,0.52
2022-10-29T01:31:18.035Z,0.60
2022-10-29T01:33:55.714Z,0.80
2022-10-29T01:36:34.914Z,0.77
2022-10-29T01:39:15.722Z,0.63
2022-10-29T01:41:54.061Z,0.50
2022-10-29T01:44:36.220Z,0.77
2022-10-29T01:47:11.268Z,0.80
2022-10-29T01:49:43.484Z,0.65
2022-10-29T01:52:15.965Z,0.70
2022-10-29T01:54:46.333Z,0.82
2022-10-29T01:57:33.012Z,0.70
2022-10-29T02:00:06.266Z,0.70
2022-10-29T02:03:01.350Z,0.73
2022-10-29T02:05:36.671Z,0.70
2022-10-29T02:08:20.316Z,0.60
2022-10-29T02:10:57.152Z,0.60
2022-10-29T02:13:32.905Z,0.75
2022-10-29T02:16:06.297Z,0.90
2022-10-29T02:18:43.194Z,0.73
2022-10-29T02:21:11.096Z,0.65
2022-10-29T02:23:39.141Z,0.68
2022-10-29T02:26:06.916Z,0.70
2022-10-29T02:28:34.687Z,0.68
2022-10-29T02:31:02.507Z,0.52
2022-10-29T02:33:30.723Z,0.60
2022-10-29T02:35:59.874Z,0.60
2022-10-29T02:38:27.855Z,0.70
2022-10-29T02:40:55.635Z,0.70
2022-10-29T02:43:23.461Z,0.57
2022-10-29T02:45:51.551Z,0.50
2022-10-29T02:48:19.338Z,0.63
2022-10-29T02:50:47.087Z,0.70
2022-10-29T02:53:16.139Z,0.70
2022-10-29T02:55:43.912Z,0.80
2022-10-29T02:58:11.721Z,0.70
2022-10-29T03:00:39.483Z,0.65
2022-10-29T03:03:07.259Z,0.50
2022-10-29T03:05:34.981Z,0.65
2022-10-29T03:08:02.713Z,0.60
2022-10-29T03:10:31.797Z,0.90
2022-10-29T03:12:59.789Z,0.60
2022-10-29T03:15:28.098Z,0.70
2022-10-29T03:17:56.177Z,0.80
2022-10-29T03:20:24.183Z,0.60
2022-10-29T03:22:51.923Z,0.73
2022-10-29T03:25:19.687Z,0.70
2022-10-29T03:27:48.957Z,0.80
2022-10-29T03:30:18.483Z,0.60
2022-10-29T03:32:49.163Z,0.60
2022-10-29T03:35:17.607Z,0.70
2022-10-29T03:37:45.424Z,0.70
2022-10-29T03:40:13.227Z,0.52
2022-10-29T03:42:40.987Z,0.60
2022-10-29T03:45:12.155Z,0.50
2022-10-29T03:47:39.957Z,0.93
2022-10-29T03:50:09.658Z,0.73
2022-10-29T03:52:37.855Z,0.75
2022-10-29T03:55:07.590Z,0.65
2022-10-29T03:57:35.620Z,0.73
2022-10-29T04:00:04.857Z,0.63
2022-10-29T04:02:34.102Z,0.80
2022-10-29T04:05:01.951Z,0.63
2022-10-29T04:07:29.694Z,0.68
2022-10-29T04:09:57.455Z,0.70
2022-10-29T04:12:25.296Z,0.68
2022-10-29T04:14:53.027Z,0.50
2022-10-29T04:17:21.150Z,0.52
2022-10-29T04:19:50.271Z,0.70
2022-10-29T04:30:43.331Z,0.60
2022-10-29T04:33:11.122Z,0.60
2022-10-29T04:35:40.221Z,0.70
2022-10-29T04:38:09.891Z,0.80
2022-10-29T04:40:37.956Z,0.50
2022-10-29T04:43:05.703Z,0.60
2022-10-29T04:45:33.556Z,0.80
2022-10-29T04:48:01.904Z,0.80
2022-10-29T04:50:29.869Z,0.68
2022-10-29T04:53:01.263Z,0.80
2022-10-29T04:55:30.318Z,0.70
2022-10-29T04:57:58.968Z,0.70
2022-10-29T05:00:26.923Z,0.70
2022-10-29T05:02:55.327Z,0.70
2022-10-29T05:05:23.782Z,0.70
2022-10-29T05:08:00.174Z,0.60
2022-10-29T05:10:31.529Z,0.82
2022-10-29T05:13:00.950Z,0.68
2022-10-29T05:15:30.113Z,0.57
2022-10-29T05:17:59.052Z,0.63
2022-10-29T05:20:27.422Z,0.68
2022-10-29T05:23:02.682Z,0.60
2022-10-29T05:25:32.732Z,0.55
2022-10-29T05:28:06.310Z,0.70
2022-10-29T05:30:35.192Z,0.70
2022-10-29T05:33:02.965Z,0.68
2022-10-29T05:35:30.748Z,0.52
2022-10-29T05:38:00.340Z,0.50
2022-10-29T05:40:28.500Z,0.70
2022-10-29T05:42:56.614Z,0.80
2022-10-29T05:45:25.318Z,0.85
2022-10-29T05:47:58.433Z,0.77
2022-10-29T05:50:27.060Z,0.80
2022-10-29T05:52:59.027Z,0.70
2022-10-29T05:55:29.550Z,0.70
2022-10-29T05:57:58.160Z,0.85
2022-10-29T06:00:27.701Z,0.60
2022-10-29T06:02:55.893Z,0.80
2022-10-29T06:05:24.030Z,0.60
2022-10-29T06:07:55.986Z,0.70
2022-10-29T06:10:25.404Z,0.70
2022-10-29T06:12:54.954Z,0.55
2022-10-29T06:15:23.080Z,0.65
2022-10-29T06:17:51.556Z,0.80
2022-10-29T06:20:21.647Z,0.70
2022-10-29T06:22:57.904Z,0.60
2022-10-29T06:25:26.953Z,0.70
2022-10-29T06:28:08.191Z,0.70
2022-10-29T06:30:37.798Z,0.68
2022-10-29T06:33:06.423Z,0.63
2022-10-29T06:38:09.411Z,0.73
2022-10-29T06:40:40.207Z,0.70
2022-10-29T06:43:12.127Z,0.55
2022-10-29T06:45:40.323Z,0.80
2022-10-29T06:48:08.658Z,0.70
2022-10-29T06:50:36.567Z,0.70
2022-10-29T06:53:06.911Z,0.70
2022-10-29T06:55:35.642Z,0.60
2022-10-29T06:58:06.428Z,0.90
2022-10-29T07:00:36.141Z,0.82
2022-10-29T07:03:04.947Z,0.73
2022-10-29T07:05:32.838Z,0.90
2022-10-29T07:08:02.183Z,0.63
2022-10-29T07:10:32.918Z,0.68
2022-10-29T07:13:01.863Z,1.00
2022-10-29T07:15:31.201Z,0.80
2022-10-29T07:18:03.105Z,0.90
2022-10-29T07:20:34.179Z,0.70
2022-10-29T07:23:02.235Z,0.80
2022-10-29T07:25:31.316Z,0.60
2022-10-29T07:28:05.479Z,0.85
2022-10-29T07:30:33.977Z,0.70
2022-10-29T07:33:03.358Z,0.80
2022-10-29T07:35:31.424Z,0.60
2022-10-29T07:38:07.141Z,0.60
2022-10-29T07:40:38.459Z,0.82
2022-10-29T07:43:06.466Z,0.63
2022-10-29T07:45:34.568Z,0.80
2022-10-29T07:48:07.788Z,0.70
2022-10-29T07:50:36.141Z,0.80
2022-10-29T07:53:05.479Z,0.93
2022-10-29T07:55:33.304Z,0.90
2022-10-29T07:58:04.322Z,0.82
2022-10-29T08:00:35.057Z,0.60
2022-10-29T08:03:05.374Z,0.63
2022-10-29T08:05:33.539Z,0.60
2022-10-29T08:08:01.443Z,0.70
2022-10-29T08:10:30.369Z,0.77
2022-10-29T08:13:00.919Z,0.65
2022-10-29T08:15:31.197Z,0.60
2022-10-29T08:17:59.234Z,0.73
2022-10-29T08:20:30.348Z,0.60
2022-10-29T08:23:01.241Z,0.60
2022-10-29T08:25:29.802Z,0.77
2022-10-29T08:28:03.023Z,0.90
2022-10-29T08:30:31.680Z,0.85
2022-10-29T08:33:00.169Z,0.60
2022-10-29T08:35:30.456Z,0.70
2022-10-29T08:37:59.072Z,0.93
2022-10-29T08:40:32.745Z,0.57
2022-10-29T08:44:03.906Z,0.60
2022-10-29T08:46:44.773Z,0.88
2022-10-29T08:49:19.952Z,1.00
2022-10-29T08:51:59.543Z,0.63
2022-10-29T08:54:32.837Z,0.90
2022-10-29T08:57:07.482Z,1.10
2022-10-29T08:59:43.202Z,0.73
2022-10-29T09:02:17.792Z,1.00
2022-10-29T09:04:45.809Z,0.80
2022-10-29T09:07:44.271Z,0.80
2022-10-29T09:10:25.862Z,1.10
2022-10-29T09:13:22.052Z,0.77
2022-10-29T09:16:06.479Z,0.75
2022-10-29T09:18:55.113Z,0.88
2022-10-29T09:21:34.948Z,0.80
2022-10-29T09:24:15.048Z,0.98
2022-10-29T09:26:58.604Z,0.50
2022-10-29T09:29:52.558Z,1.00
2022-10-29T09:32:26.950Z,0.88
2022-10-29T09:35:01.356Z,1.25
2022-10-29T09:37:41.748Z,1.08
2022-10-29T09:40:26.749Z,1.38
2022-10-29T09:42:55.515Z,0.90
2022-10-29T09:45:43.321Z,1.10
2022-10-29T09:48:21.149Z,1.17
2022-10-29T09:51:02.793Z,1.23
2022-10-29T09:53:30.753Z,1.15
2022-10-29T09:55:59.868Z,1.20
2022-10-29T09:58:29.556Z,1.42
2022-10-29T10:00:58.011Z,1.00
2022-10-29T10:03:31.788Z,1.13
2022-10-29T10:06:05.005Z,1.65
2022-10-29T10:08:34.752Z,1.00
2022-10-29T10:11:06.977Z,1.42
2022-10-29T10:13:38.605Z,1.25
2022-10-29T10:16:07.915Z,1.50
2022-10-29T10:21:14.988Z,1.70
2022-10-29T10:23:46.833Z,1.10
2022-10-29T10:26:35.536Z,1.08
2022-10-29T10:29:22.614Z,1.02
2022-10-29T10:32:10.530Z,1.30
2022-10-29T10:34:40.212Z,1.30
2022-10-29T10:37:17.673Z,1.15
2022-10-29T10:39:52.639Z,1.17
2022-10-29T10:42:27.143Z,1.13
2022-10-29T10:45:00.929Z,1.30
2022-10-29T10:47:34.441Z,1.30
2022-10-29T10:50:13.041Z,1.45
2022-10-29T10:52:42.034Z,1.13
2022-10-29T10:55:24.063Z,1.38
2022-10-29T10:58:04.835Z,1.40
2022-10-29T11:00:41.230Z,1.13
2022-10-29T11:03:19.399Z,1.10
2022-10-29T11:05:59.760Z,1.27
2022-10-29T11:08:31.751Z,1.10
2022-10-29T11:11:08.016Z,1.08
2022-10-29T11:13:41.287Z,1.33
2022-10-29T11:16:19.208Z,1.15
2022-10-29T11:18:55.895Z,1.23
2022-10-29T11:21:31.501Z,1.10
2022-10-29T11:24:07.904Z,1.77
2022-10-29T11:26:43.868Z,1.48
2022-10-29T11:29:23.976Z,1.55
2022-10-29T11:32:01.150Z,1.10
2022-10-29T11:34:44.348Z,1.23
2022-10-29T11:37:24.141Z,1.27
2022-10-29T11:39:59.064Z,1.00
2022-10-29T11:42:27.135Z,1.50
2022-10-29T11:44:59.892Z,1.30
2022-10-29T11:48:05.191Z,0.93
2022-10-29T11:50:45.582Z,1.23
2022-10-29T11:53:33.080Z,1.58
2022-10-29T11:56:14.984Z,1.30
2022-10-29T11:58:54.083Z,1.20
2022-10-29T12:01:37.374Z,1.10
2022-10-29T12:04:27.995Z,1.02
2022-10-29T12:07:12.425Z,1.20
2022-10-29T12:10:18.952Z,1.50
2022-10-29T12:12:53.847Z,1.17
2022-10-29T12:15:27.515Z,1.23
2022-10-29T12:18:09.038Z,0.90
2022-10-29T12:20:48.459Z,1.38
2022-10-29T12:23:31.398Z,0.88
2022-10-29T12:26:09.963Z,1.40
2022-10-29T12:28:47.927Z,1.17
2022-10-29T12:31:28.740Z,1.27
2022-10-29T12:34:06.491Z,1.27
2022-10-29T12:36:44.055Z,1.20
2022-10-29T12:39:29.826Z,0.90
2022-10-29T12:42:04.434Z,1.10
2022-10-29T12:44:45.108Z,1.10
2022-10-29T12:47:22.012Z,1.08
2022-10-29T12:50:07.082Z,1.25
2022-10-29T12:52:42.271Z,1.23
2022-10-29T12:55:14.550Z,1.08
2022-10-29T12:57:42.315Z,1.10
2022-10-29T13:00:47.621Z,1.00
2022-10-29T13:04:00.517Z,1.40
2022-10-29T13:07:02.787Z,1.10
2022-10-29T13:09:34.111Z,1.10
2022-10-29T13:12:04.576Z,0.82
2022-10-29T13:14:42.693Z,1.08
2022-10-29T13:17:31.969Z,1.42
2022-10-29T13:20:02.477Z,1.33
2022-10-29T13:22:58.735Z,1.13
2022-10-29T13:25:43.902Z,1.00
2022-10-29T13:28:52.797Z,1.20
2022-10-29T13:31:48.772Z,1.02
2022-10-29T13:34:52.662Z,1.13
2022-10-29T13:38:02.720Z,0.90
2022-10-29T13:41:13.111Z,1.10
2022-10-29T13:43:45.125Z,1.15
2022-10-29T13:46:32.422Z,1.30
2022-10-29T13:49:06.078Z,0.93
2022-10-29T13:51:43.754Z,1.70
2022-10-29T13:54:23.451Z,1.20
2022-10-29T13:56:59.083Z,1.83
2022-10-29T13:59:39.390Z,1.08
2022-10-29T14:02:26.850Z,0.93
2022-10-29T14:05:01.044Z,1.20
2022-10-29T14:07:42.533Z,1.02
2022-10-29T14:10:21.078Z,0.98
2022-10-29T14:12:56.623Z,1.02
2022-10-29T14:15:24.807Z,1.27
2022-10-29T14:17:52.565Z,1.10
2022-10-29T14:20:24.984Z,0.90
2022-10-29T14:22:53.057Z,1.08
2022-10-29T14:25:41.419Z,1.00
2022-10-29T14:28:16.158Z,1.30
2022-10-29T14:30:44.658Z,0.95
2022-10-29T14:33:27.279Z,1.20
2022-10-29T14:36:01.056Z,1.00
2022-10-29T14:38:40.956Z,1.00
2022-10-29T14:41:09.185Z,0.90
2022-10-29T14:43:40.006Z,1.02
2022-10-29T14:48:54.859Z,0.77
2022-10-29T14:51:24.001Z,0.90
2022-10-29T14:54:01.078Z,1.10
2022-10-29T14:56:35.775Z,1.13
2022-10-29T14:59:16.220Z,1.05
2022-10-29T15:01:56.804Z,1.13
2022-10-29T15:04:30.984Z,1.08
2022-10-29T15:07:28.548Z,1.10
2022-10-29T15:10:21.179Z,1.30
2022-10-29T15:12:50.685Z,1.10
2022-10-29T15:15:29.802Z,1.05
2022-10-29T15:18:03.785Z,1.00
2022-10-29T15:20:37.948Z,0.93
2022-10-29T15:23:06.727Z,0.90
2022-10-29T15:25:38.394Z,1.00
2022-10-29T15:28:12.010Z,1.17
2022-10-29T15:30:41.186Z,1.00
2022-10-29T15:33:19.083Z,1.17
2022-10-29T15:35:53.061Z,1.05
2022-10-29T15:39:26.932Z,1.10
2022-10-29T15:41:58.940Z,1.02
2022-10-29T15:44:34.948Z,1.10
2022-10-29T15:47:20.994Z,1.05
2022-10-29T15:49:48.809Z,1.30
2022-10-29T15:52:20.029Z,1.63
2022-10-29T15:54:48.687Z,0.80
2022-10-29T15:57:17.760Z,1.30
2022-10-29T15:59:45.535Z,0.90
2022-10-29T16:02:18.380Z,1.40
2022-10-29T16:04:46.327Z,1.05
2022-10-29T16:07:14.821Z,1.10
2022-10-29T16:09:47.724Z,1.27
2022-10-29T16:12:15.974Z,1.13
2022-10-29T16:14:43.780Z,1.13
2022-10-29T16:17:16.367Z,1.20
2022-10-29T16:19:44.181Z,0.98
2022-10-29T16:22:16.162Z,1.02
2022-10-29T16:24:44.330Z,0.98
2022-10-29T16:27:16.494Z,1.10
2022-10-29T16:29:44.343Z,1.25
2022-10-29T16:32:17.347Z,1.00
2022-10-29T16:34:45.777Z,1.00
2022-10-29T16:37:16.097Z,0.88
2022-10-29T16:39:44.246Z,1.30
2022-10-29T16:42:30.692Z,1.20
2022-10-29T16:44:58.768Z,1.10
2022-10-29T16:47:27.943Z,0.80
2022-10-29T16:49:55.751Z,1.27
2022-10-29T16:52:26.329Z,1.00
2022-10-29T16:54:56.855Z,1.05
2022-10-29T16:57:25.097Z,1.00
2022-10-29T16:59:52.845Z,0.90
2022-10-29T17:02:20.615Z,1.00
2022-10-29T17:04:49.698Z,0.90
2022-10-29T17:07:17.893Z,0.98
2022-10-29T17:09:45.739Z,0.93
2022-10-29T17:12:13.566Z,1.10
2022-10-29T17:14:41.352Z,1.40
2022-10-29T17:17:09.108Z,0.90
2022-10-29T17:19:37.184Z,1.35
2022-10-29T17:22:10.704Z,0.90
2022-10-29T17:24:38.453Z,1.10
2022-10-29T17:27:06.196Z,1.20
2022-10-29T17:29:36.431Z,1.15
2022-10-29T17:32:05.808Z,1.08
2022-10-29T17:34:34.085Z,1.10
2022-10-29T17:37:01.822Z,1.13
2022-10-29T17:39:31.240Z,0.90
2022-10-29T17:41:59.240Z,0.90
2022-10-29T17:44:27.529Z,1.00
2022-10-29T17:46:55.837Z,1.15
2022-10-29T17:49:23.757Z,1.02
2022-10-29T17:51:51.544Z,1.05
2022-10-29T17:54:21.446Z,1.17
2022-10-29T17:56:51.464Z,0.83
2022-10-29T17:59:19.204Z,0.93
2022-10-29T18:01:47.054Z,0.95
2022-10-29T18:04:14.982Z,1.17
2022-10-29T18:06:42.770Z,1.27
2022-10-29T18:09:10.646Z,1.05
2022-10-29T18:11:38.678Z,0.98
2022-10-29T18:14:07.782Z,0.95
2022-10-29T18:16:35.570Z,1.00
2022-10-29T18:19:03.645Z,0.90
2022-10-29T18:21:32.538Z,1.33
2022-10-29T18:24:00.513Z,0.82
2022-10-29T18:26:31.712Z,0.95
2022-10-29T18:29:02.490Z,1.00
2022-10-29T18:31:33.007Z,1.15
2022-10-29T18:34:05.182Z,1.15
2022-10-29T18:36:35.764Z,1.38
2022-10-29T18:39:06.219Z,0.90
2022-10-29T18:41:35.286Z,1.08
2022-10-29T18:44:03.739Z,1.25
2022-10-29T18:46:33.878Z,1.75
2022-10-29T18:49:01.874Z,1.17
2022-10-29T18:51:33.075Z,1.25
2022-10-29T18:54:01.261Z,0.93
2022-10-29T18:56:31.051Z,1.30
2022-10-29T18:59:00.354Z,1.10
2022-10-29T19:01:31.569Z,1.27
2022-10-29T19:04:03.491Z,1.02
2022-10-29T19:06:33.951Z,1.80
2022-10-29T19:09:05.251Z,1.00
2022-10-29T19:11:33.557Z,1.02
2022-10-29T19:14:04.463Z,1.10
2022-10-29T19:21:40.762Z,1.02
2022-10-29T19:24:14.241Z,0.95
2022-10-29T19:26:42.505Z,1.42
2022-10-29T19:29:11.430Z,1.00
2022-10-29T19:31:39.881Z,1.02
2022-10-29T19:34:10.363Z,1.25
2022-10-29T19:36:40.291Z,1.30
2022-10-29T19:39:09.404Z,1.20
2022-10-29T19:41:38.373Z,1.30
2022-10-29T19:44:06.680Z,1.20
2022-10-29T19:46:34.818Z,2.60
2022-10-29T19:49:03.500Z,1.50
2022-10-29T19:51:32.855Z,1.20
2022-10-29T19:54:02.677Z,1.10
2022-10-29T19:56:30.933Z,1.50
2022-10-29T19:58:59.467Z,1.00
2022-10-29T20:01:27.332Z,1.30
2022-10-29T20:03:55.748Z,1.10
2022-10-29T20:06:24.256Z,1.00
2022-10-29T20:08:53.514Z,1.33
2022-10-29T20:11:21.262Z,1.20
2022-10-29T20:13:49.515Z,1.10
2022-10-29T20:16:20.275Z,1.30
2022-10-29T20:18:49.500Z,1.23
2022-10-29T20:21:17.617Z,1.25
2022-10-29T20:23:46.153Z,0.85
2022-10-29T20:26:16.164Z,1.10
2022-10-29T20:28:44.296Z,1.40
2022-10-29T20:31:24.361Z,0.98
2022-10-29T20:33:54.046Z,1.70
2022-10-29T20:36:24.404Z,1.13
2022-10-29T20:38:53.854Z,1.33
2022-10-29T20:41:23.579Z,1.35
2022-10-29T20:43:56.878Z,1.42
2022-10-29T20:46:26.280Z,1.30
2022-10-29T20:48:54.619Z,1.08
2022-10-29T20:51:23.804Z,1.38
2022-10-29T20:53:52.816Z,1.23
2022-10-29T20:56:21.914Z,1.10
2022-10-29T20:58:51.667Z,1.20
2022-10-29T21:01:22.872Z,1.48
2022-10-29T21:03:52.654Z,1.23
2022-10-29T21:06:21.340Z,1.67
2022-10-29T21:08:51.990Z,1.13
2022-10-29T21:11:22.006Z,1.38
2022-10-29T21:13:52.667Z,1.50
2022-10-29T21:16:24.309Z,1.08
2022-10-29T21:18:55.670Z,1.67
2022-10-29T21:21:24.131Z,1.00
2022-10-29T21:23:52.125Z,1.30
2022-10-29T21:26:21.912Z,1.40
2022-10-29T21:28:52.405Z,0.90
2022-10-29T21:31:23.387Z,1.20
2022-10-29T21:33:51.555Z,1.00
2022-10-29T21:36:20.200Z,1.23
2022-10-29T21:38:48.746Z,1.20
2022-10-29T21:41:16.882Z,1.05
2022-10-29T21:43:44.691Z,1.45
2022-10-29T21:46:13.814Z,0.90
2022-10-29T21:48:41.651Z,1.08
2022-10-29T21:51:13.411Z,1.13
2022-10-29T21:53:41.464Z,1.05
2022-10-29T21:56:13.237Z,1.00
2022-10-29T21:58:41.212Z,1.20
2022-10-29T22:01:11.478Z,1.20
2022-10-29T22:03:43.101Z,1.33
2022-10-29T22:06:14.462Z,1.15
2022-10-29T22:08:43.241Z,1.05
2022-10-29T22:11:12.273Z,1.00
2022-10-29T22:13:40.955Z,1.00
2022-10-29T22:16:11.911Z,0.95
2022-10-29T22:21:13.291Z,1.10
2022-10-29T22:23:45.576Z,1.38
2022-10-29T22:26:14.506Z,1.05
2022-10-29T22:28:42.443Z,1.50
2022-10-29T22:31:11.038Z,1.20
2022-10-29T22:33:38.974Z,1.20
2022-10-29T22:36:12.351Z,1.10
2022-10-29T22:38:40.957Z,1.02
2022-10-29T22:41:10.871Z,1.25
2022-10-29T22:43:39.150Z,1.30
2022-10-29T22:46:09.292Z,0.70
2022-10-29T22:48:37.387Z,1.40
2022-10-29T22:51:12.816Z,1.15
2022-10-29T22:53:40.624Z,1.25
2022-10-29T22:56:11.789Z,1.35
2022-10-29T22:58:39.506Z,1.15
2022-10-29T23:01:10.364Z,1.27
2022-10-29T23:06:12.323Z,1.25
2022-10-29T23:08:40.451Z,1.10
2022-10-29T23:11:11.482Z,1.10
2022-10-29T23:13:39.548Z,1.30
2022-10-29T23:16:08.637Z,1.00
2022-10-29T23:18:36.391Z,1.48
2022-10-29T23:21:07.237Z,1.30
2022-10-29T23:26:05.388Z,1.00
2022-10-29T23:28:37.900Z,0.93
2022-10-29T23:31:07.813Z,1.20
2022-10-29T23:33:35.629Z,1.00
2022-10-29T23:36:04.274Z,1.02
2022-10-29T23:38:32.099Z,1.17
2022-10-29T23:41:02.954Z,1.40
2022-10-29T23:45:59.184Z,1.17
2022-10-29T23:48:27.447Z,0.98
2022-10-29T23:50:56.401Z,1.50
2022-10-29T23:53:25.005Z,1.20
2022-10-29T23:55:53.028Z,1.17
2022-10-29T23:58:22.277Z,1.42
